Time;durP1;ratioP1;P1;durP2;ratioP2;P2;SDS_P1;SDS_P2;PMS_P1;PMS_P2;Temp;Humidity;BMP_temperature;BMP_pressure;BME280_temperature;BME280_humidity;BME280_pressure;Samples;Min_cycle;Max_cycle;Signal;HPM_P1;HPM_P2
2021/09/28 00:01:38;;;;;;;4.20;1.00;;;16.00;82.70;;;;;;4994469;28;20468;-43
2021/09/28 00:04:05;;;;;;;1.33;1.00;;;15.90;82.70;;;;;;4991215;28;20978;-43
2021/09/28 00:06:32;;;;;;;3.07;1.43;;;15.90;82.80;;;;;;4993650;28;20468;-43
2021/09/28 00:08:59;;;;;;;2.00;0.97;;;15.90;82.90;;;;;;4990653;28;20464;-43
2021/09/28 00:11:26;;;;;;;2.40;1.00;;;15.90;83.00;;;;;;4990369;28;20464;-43
2021/09/28 00:13:52;;;;;;;2.60;1.00;;;15.90;82.80;;;;;;4987456;28;20969;-43
2021/09/28 00:16:19;;;;;;;1.33;1.20;;;15.80;82.80;;;;;;4989296;28;20828;-43
2021/09/28 00:18:46;;;;;;;3.20;1.17;;;15.80;83.00;;;;;;4990542;28;21269;-43
2021/09/28 00:21:13;;;;;;;2.10;0.70;;;15.80;83.20;;;;;;4999007;28;20805;-43
2021/09/28 00:23:39;;;;;;;1.77;1.27;;;15.80;83.20;;;;;;4991871;28;20472;-43
2021/09/28 00:26:06;;;;;;;3.00;0.93;;;15.80;83.10;;;;;;4989176;28;21001;-43
2021/09/28 00:28:33;;;;;;;2.30;1.20;;;15.80;83.10;;;;;;4988958;28;21060;-43
2021/09/28 00:31:00;;;;;;;7.33;1.47;;;15.70;83.00;;;;;;4991854;28;20460;-43
2021/09/28 00:33:28;;;;;;;3.23;1.03;;;15.80;82.70;;;;;;4989787;28;21024;-43
2021/09/28 00:35:56;;;;;;;1.70;0.70;;;15.70;82.70;;;;;;4989238;28;20460;-43
2021/09/28 00:38:23;;;;;;;1.93;0.97;;;15.70;82.80;;;;;;4991674;28;20457;-43
2021/09/28 00:40:50;;;;;;;4.20;1.17;;;15.70;82.90;;;;;;4988097;28;20457;-43
2021/09/28 00:43:17;;;;;;;2.57;1.27;;;15.70;83.00;;;;;;4992842;28;20479;-43
2021/09/28 00:45:44;;;;;;;2.53;0.77;;;15.60;82.80;;;;;;4987269;28;20852;-43
2021/09/28 00:48:11;;;;;;;1.87;1.13;;;15.60;82.90;;;;;;4990547;28;20471;-43
2021/09/28 00:50:38;;;;;;;2.30;0.93;;;15.60;83.20;;;;;;4988209;28;20460;-43
2021/09/28 00:53:05;;;;;;;3.17;1.23;;;15.50;83.40;;;;;;4992857;28;20491;-43
2021/09/28 00:55:32;;;;;;;2.40;1.30;;;15.60;83.60;;;;;;4987586;28;20507;-43
2021/09/28 00:58:08;;;;;;;4.60;1.20;;;15.60;83.50;;;;;;5007904;28;21083;-43
2021/09/28 01:00:36;;;;;;;2.40;1.10;;;15.60;83.50;;;;;;4991855;28;20542;-43
2021/09/28 01:03:06;;;;;;;3.70;1.20;;;15.60;83.30;;;;;;4992728;28;20474;-43
2021/09/28 01:05:33;;;;;;;2.00;1.13;;;15.50;83.20;;;;;;4987932;28;20472;-43
2021/09/28 01:08:00;;;;;;;2.53;1.60;;;15.40;83.50;;;;;;4990535;28;20460;-43
2021/09/28 01:10:27;;;;;;;4.23;1.43;;;15.40;83.60;;;;;;4990206;28;20469;-43
2021/09/28 01:12:54;;;;;;;3.37;1.47;;;15.30;83.60;;;;;;4989859;28;20490;-43
2021/09/28 01:15:20;;;;;;;5.60;1.40;;;15.30;83.70;;;;;;4994203;28;20757;-43
2021/09/28 01:17:47;;;;;;;3.67;1.53;;;15.30;83.70;;;;;;4992869;28;20482;-43
2021/09/28 01:20:14;;;;;;;1.53;1.20;;;15.30;83.70;;;;;;4995911;28;20465;-43
2021/09/28 01:22:41;;;;;;;9.50;1.53;;;15.20;83.80;;;;;;4991386;28;20464;-43
2021/09/28 01:25:08;;;;;;;3.93;1.50;;;15.20;83.80;;;;;;4995372;28;20465;-43
2021/09/28 01:27:37;;;;;;;3.13;1.53;;;15.20;83.80;;;;;;4992510;28;20471;-43
2021/09/28 01:30:08;;;;;;;3.90;1.67;;;15.20;83.90;;;;;;5006216;28;20468;-44
2021/09/28 01:32:35;;;;;;;6.70;1.47;;;15.20;83.80;;;;;;4996581;28;20523;-43
2021/09/28 01:35:03;;;;;;;3.93;1.60;;;15.20;83.70;;;;;;4992850;28;20468;-43
2021/09/28 01:37:30;;;;;;;3.80;1.77;;;15.20;83.80;;;;;;4995448;28;20460;-43
2021/09/28 01:39:57;;;;;;;5.17;1.47;;;15.20;83.80;;;;;;4989846;28;20471;-43
2021/09/28 01:42:24;;;;;;;5.10;1.80;;;15.20;83.40;;;;;;4990298;28;20471;-43
2021/09/28 01:44:51;;;;;;;5.37;1.70;;;15.20;83.50;;;;;;4993058;28;20468;-43
2021/09/28 01:47:17;;;;;;;3.30;2.07;;;15.10;83.70;;;;;;4991827;28;20467;-43
2021/09/28 01:49:44;;;;;;;4.13;1.93;;;15.10;83.60;;;;;;4993199;28;21084;-43
2021/09/28 01:52:11;;;;;;;4.70;2.27;;;15.10;83.60;;;;;;4990591;28;20876;-43
2021/09/28 01:54:37;;;;;;;3.93;1.70;;;15.10;83.30;;;;;;4993391;28;20540;-43
2021/09/28 01:57:05;;;;;;;4.37;2.00;;;15.10;83.30;;;;;;4990603;28;20465;-43
2021/09/28 01:59:31;;;;;;;2.20;1.80;;;15.00;83.30;;;;;;4994146;28;20464;-43
2021/09/28 02:01:58;;;;;;;4.23;1.30;;;15.00;83.10;;;;;;4999698;28;20479;-43
2021/09/28 02:04:25;;;;;;;2.57;1.77;;;15.00;83.20;;;;;;4989837;28;20562;-43
2021/09/28 02:06:52;;;;;;;3.50;1.80;;;15.00;82.80;;;;;;4990406;28;20469;-43
2021/09/28 02:09:19;;;;;;;3.40;1.50;;;15.00;83.10;;;;;;4992990;28;20462;-43
2021/09/28 02:11:45;;;;;;;7.10;2.50;;;14.90;83.30;;;;;;4992456;28;20837;-43
2021/09/28 02:14:12;;;;;;;7.00;2.23;;;15.00;83.40;;;;;;4992025;28;20500;-43
2021/09/28 02:16:44;;;;;;;3.20;1.83;;;15.00;83.20;;;;;;4990235;28;20850;-43
2021/09/28 02:19:12;;;;;;;3.20;2.03;;;15.00;83.00;;;;;;4994866;28;21210;-43
2021/09/28 02:21:39;;;;;;;4.50;2.00;;;15.00;82.80;;;;;;4992371;28;20460;-43
2021/09/28 02:24:05;;;;;;;2.80;1.30;;;15.00;82.90;;;;;;4990785;28;20460;-43
2021/09/28 02:26:32;;;;;;;2.63;1.83;;;14.90;83.10;;;;;;4993546;28;20468;-45
2021/09/28 02:29:00;;;;;;;5.97;2.00;;;14.90;83.30;;;;;;4994180;28;21012;-46
2021/09/28 02:31:26;;;;;;;4.00;1.80;;;14.90;83.10;;;;;;4998784;28;20460;-46
2021/09/28 02:33:53;;;;;;;3.10;2.10;;;14.90;83.00;;;;;;5005518;28;20575;-46
2021/09/28 02:36:20;;;;;;;2.73;1.40;;;14.90;83.10;;;;;;5003168;28;20471;-45
2021/09/28 02:38:47;;;;;;;5.30;2.37;;;14.90;83.10;;;;;;4992675;28;20457;-45
2021/09/28 02:41:14;;;;;;;4.23;1.97;;;14.90;83.20;;;;;;4996127;28;20461;-46
2021/09/28 02:43:41;;;;;;;7.03;2.87;;;14.80;83.20;;;;;;4992218;28;20472;-46
2021/09/28 02:46:08;;;;;;;2.67;1.80;;;14.80;83.30;;;;;;4994403;28;20842;-46
2021/09/28 02:48:35;;;;;;;5.43;2.20;;;14.80;83.30;;;;;;4993746;28;21011;-46
2021/09/28 02:51:02;;;;;;;7.13;2.80;;;14.80;83.40;;;;;;4990150;28;20465;-46
2021/09/28 02:53:29;;;;;;;7.00;2.30;;;14.80;83.20;;;;;;4995574;28;22239;-46
2021/09/28 02:55:55;;;;;;;5.90;2.10;;;14.80;83.20;;;;;;4991970;28;21147;-46
2021/09/28 02:58:22;;;;;;;6.93;2.13;;;14.70;83.40;;;;;;4992461;28;20472;-46
2021/09/28 03:00:49;;;;;;;2.43;2.23;;;14.80;83.30;;;;;;5001286;28;20973;-46
2021/09/28 03:03:16;;;;;;;5.07;2.30;;;14.70;83.40;;;;;;5000607;28;20461;-46
2021/09/28 03:05:43;;;;;;;3.00;1.53;;;14.70;83.40;;;;;;4994907;28;20856;-46
2021/09/28 03:08:10;;;;;;;3.70;1.67;;;14.70;83.30;;;;;;4992035;28;20469;-46
2021/09/28 03:10:37;;;;;;;3.70;2.23;;;14.60;83.50;;;;;;5014638;28;20865;-46
2021/09/28 03:13:04;;;;;;;4.10;2.20;;;14.60;83.50;;;;;;4992580;28;20567;-45
2021/09/28 03:15:31;;;;;;;2.50;2.30;;;14.60;83.50;;;;;;4993732;28;20449;-45
2021/09/28 03:17:57;;;;;;;4.50;2.53;;;14.60;83.50;;;;;;4993577;28;20801;-45
2021/09/28 03:20:24;;;;;;;3.03;2.03;;;14.50;83.60;;;;;;4990037;28;20468;-45
2021/09/28 03:22:51;;;;;;;3.77;2.00;;;14.50;83.50;;;;;;4992173;28;20865;-45
2021/09/28 03:25:18;;;;;;;5.80;2.20;;;14.50;83.60;;;;;;5006244;28;20471;-46
2021/09/28 03:27:44;;;;;;;2.97;1.90;;;14.50;83.60;;;;;;4996445;28;20466;-46
2021/09/28 03:30:11;;;;;;;3.50;1.60;;;14.50;83.40;;;;;;4990768;28;21099;-46
2021/09/28 03:32:39;;;;;;;3.50;2.23;;;14.40;83.40;;;;;;4992276;28;20472;-46
2021/09/28 03:35:09;;;;;;;5.70;2.27;;;14.40;83.30;;;;;;4997356;28;20457;-46
2021/09/28 03:37:37;;;;;;;3.50;2.17;;;14.40;83.50;;;;;;4996868;28;20464;-46
2021/09/28 03:40:07;;;;;;;2.50;2.27;;;14.40;83.70;;;;;;4992979;28;20981;-46
2021/09/28 03:42:33;;;;;;;2.90;2.00;;;14.30;83.90;;;;;;4996046;28;20464;-46
2021/09/28 03:45:00;;;;;;;4.17;2.60;;;14.30;84.00;;;;;;4991899;28;20465;-46
2021/09/28 03:47:27;;;;;;;2.80;2.20;;;14.30;84.10;;;;;;4997962;28;20464;-46
2021/09/28 03:49:54;;;;;;;4.57;2.90;;;14.30;84.10;;;;;;4991253;28;20460;-46
2021/09/28 03:52:20;;;;;;;3.20;1.53;;;14.30;84.20;;;;;;4995328;28;21213;-46
2021/09/28 03:54:47;;;;;;;4.67;1.90;;;14.30;84.40;;;;;;4996837;28;20528;-46
2021/09/28 03:57:14;;;;;;;5.10;2.00;;;14.30;84.30;;;;;;4994436;28;20993;-46
2021/09/28 03:59:41;;;;;;;2.60;2.40;;;14.30;84.20;;;;;;4995256;28;20846;-46
2021/09/28 04:02:07;;;;;;;2.20;2.00;;;14.30;84.10;;;;;;4994307;28;20732;-46
2021/09/28 04:04:34;;;;;;;1.90;1.70;;;14.20;84.20;;;;;;4992518;28;20908;-46
2021/09/28 04:07:01;;;;;;;4.07;2.53;;;14.20;84.30;;;;;;4991426;28;20459;-46
2021/09/28 04:09:28;;;;;;;5.90;2.30;;;14.20;84.40;;;;;;5007840;28;20478;-46
2021/09/28 04:11:54;;;;;;;3.30;2.03;;;14.10;84.40;;;;;;4992886;28;20468;-46
2021/09/28 04:14:21;;;;;;;3.47;1.93;;;14.10;84.40;;;;;;4993861;28;20498;-45
2021/09/28 04:16:48;;;;;;;2.40;2.10;;;14.10;84.50;;;;;;4996124;28;20468;-45
2021/09/28 04:19:15;;;;;;;4.27;1.93;;;14.10;84.60;;;;;;4993726;28;20465;-45
2021/09/28 04:21:42;;;;;;;2.20;1.67;;;14.10;84.50;;;;;;4990182;28;20472;-45
2021/09/28 04:24:11;;;;;;;3.80;2.17;;;14.10;84.30;;;;;;4988405;28;20468;-45
2021/09/28 04:26:39;;;;;;;3.53;2.10;;;14.10;84.20;;;;;;4991102;28;20464;-45
2021/09/28 04:29:06;;;;;;;5.70;2.30;;;14.00;84.20;;;;;;4995455;28;20468;-45
2021/09/28 04:31:32;;;;;;;2.37;1.80;;;14.00;84.20;;;;;;4990940;28;20919;-45
2021/09/28 04:33:59;;;;;;;2.90;1.90;;;14.00;84.40;;;;;;4990357;28;20860;-45
2021/09/28 04:36:28;;;;;;;4.33;2.00;;;13.90;84.40;;;;;;4991860;28;20465;-45
2021/09/28 04:38:55;;;;;;;3.90;3.13;;;13.90;84.40;;;;;;4991288;28;20820;-45
2021/09/28 04:41:22;;;;;;;2.90;2.00;;;13.90;84.50;;;;;;4988774;28;20460;-45
2021/09/28 04:43:49;;;;;;;6.87;2.47;;;13.90;84.50;;;;;;4991972;28;20469;-45
2021/09/28 04:46:16;;;;;;;2.70;2.50;;;13.90;84.50;;;;;;4990708;28;20464;-45
2021/09/28 04:48:44;;;;;;;3.40;2.50;;;13.90;84.10;;;;;;4993198;28;20464;-45
2021/09/28 04:51:11;;;;;;;5.87;2.10;;;13.80;84.40;;;;;;4993724;28;21197;-45
2021/09/28 04:53:38;;;;;;;3.40;2.07;;;13.80;84.40;;;;;;4994208;28;20856;-45
2021/09/28 04:56:04;;;;;;;2.83;2.00;;;13.80;84.40;;;;;;5008734;28;20812;-45
2021/09/28 04:58:31;;;;;;;2.07;1.70;;;13.80;84.40;;;;;;5000515;28;20870;-45
2021/09/28 05:00:58;;;;;;;2.87;2.17;;;13.80;84.20;;;;;;5002662;28;20995;-45
2021/09/28 05:03:25;;;;;;;2.87;1.70;;;13.80;83.90;;;;;;4994627;28;20475;-45
2021/09/28 05:05:52;;;;;;;1.97;1.83;;;13.70;84.10;;;;;;5007202;28;20527;-45
2021/09/28 05:08:18;;;;;;;1.80;1.60;;;13.70;84.40;;;;;;5004122;28;20460;-46
2021/09/28 05:10:47;;;;;;;2.80;2.10;;;13.60;84.40;;;;;;5003065;28;20457;-46
2021/09/28 05:13:14;;;;;;;4.13;2.30;;;13.60;84.40;;;;;;5003809;28;20484;-45
2021/09/28 05:15:41;;;;;;;1.70;1.37;;;13.60;84.60;;;;;;5001867;28;20456;-45
2021/09/28 05:18:08;;;;;;;4.30;2.10;;;13.60;84.70;;;;;;5006452;28;20448;-45
2021/09/28 05:20:35;;;;;;;4.37;2.20;;;13.60;84.60;;;;;;5003243;28;20468;-45
2021/09/28 05:23:03;;;;;;;3.10;1.93;;;13.60;84.60;;;;;;5004096;28;20471;-45
2021/09/28 05:25:30;;;;;;;3.50;1.87;;;13.60;84.70;;;;;;5001409;28;20461;-45
2021/09/28 05:27:57;;;;;;;3.37;1.43;;;13.60;84.60;;;;;;5004792;28;20471;-45
2021/09/28 05:30:24;;;;;;;13.67;3.20;;;13.60;84.60;;;;;;5018314;28;20491;-45
2021/09/28 05:32:51;;;;;;;3.83;1.90;;;13.60;84.70;;;;;;5016269;28;20468;-45
2021/09/28 05:35:18;;;;;;;3.30;1.87;;;13.50;84.90;;;;;;5002904;28;20459;-45
2021/09/28 05:37:46;;;;;;;3.83;1.80;;;13.50;85.10;;;;;;5004023;28;20464;-45
2021/09/28 05:40:13;;;;;;;6.40;1.97;;;13.50;85.00;;;;;;5002467;28;20474;-45
2021/09/28 05:42:40;;;;;;;15.27;2.10;;;13.50;85.00;;;;;;5004491;28;20778;-45
2021/09/28 05:45:07;;;;;;;4.80;2.00;;;13.50;85.10;;;;;;4999686;28;20450;-45
2021/09/28 05:47:34;;;;;;;4.87;2.20;;;13.60;85.00;;;;;;5001809;28;20469;-45
2021/09/28 05:50:01;;;;;;;1.93;1.60;;;13.60;84.90;;;;;;5002416;28;20962;-45
2021/09/28 05:52:27;;;;;;;2.50;1.73;;;13.60;84.90;;;;;;5002237;28;20464;-46
2021/09/28 05:54:54;;;;;;;5.00;2.87;;;13.60;84.80;;;;;;5003968;28;20492;-46
2021/09/28 05:57:22;;;;;;;2.83;1.90;;;13.60;84.80;;;;;;5002344;28;20453;-46
2021/09/28 05:59:50;;;;;;;2.20;1.33;;;13.60;85.00;;;;;;5003399;28;20763;-46
2021/09/28 06:02:18;;;;;;;2.07;1.87;;;13.60;85.00;;;;;;5000830;28;20460;-46
2021/09/28 06:04:46;;;;;;;2.83;1.93;;;13.60;85.10;;;;;;5005405;28;20460;-46
2021/09/28 06:07:17;;;;;;;4.63;1.83;;;13.60;85.20;;;;;;5003372;28;21033;-46
2021/09/28 06:09:44;;;;;;;7.63;2.13;;;13.60;85.20;;;;;;5019089;28;20974;-46
2021/09/28 06:12:12;;;;;;;3.33;2.03;;;13.60;85.20;;;;;;5003991;28;20464;-46
2021/09/28 06:14:40;;;;;;;3.20;2.60;;;13.60;85.30;;;;;;5008234;28;20492;-45
2021/09/28 06:17:07;;;;;;;2.60;1.70;;;13.60;85.40;;;;;;5002620;28;21304;-45
2021/09/28 06:19:35;;;;;;;2.60;1.43;;;13.60;85.60;;;;;;5003250;28;20465;-45
2021/09/28 06:22:04;;;;;;;2.07;1.70;;;13.60;85.70;;;;;;5001526;28;20543;-45
2021/09/28 06:24:32;;;;;;;4.27;2.20;;;13.70;85.30;;;;;;5000573;28;20836;-45
2021/09/28 06:27:01;;;;;;;3.77;2.07;;;13.60;85.50;;;;;;4987944;28;20496;-45
2021/09/28 06:29:28;;;;;;;2.97;1.70;;;13.70;85.20;;;;;;5004352;28;20463;-45
2021/09/28 06:31:56;;;;;;;2.83;1.67;;;13.70;85.30;;;;;;5003242;28;20465;-45
2021/09/28 06:34:23;;;;;;;6.47;2.10;;;13.70;85.30;;;;;;5002765;28;20490;-45
2021/09/28 06:36:50;;;;;;;4.27;1.90;;;13.80;85.30;;;;;;5015043;28;20466;-45
2021/09/28 06:39:17;;;;;;;6.20;2.30;;;13.80;85.30;;;;;;5002387;28;20456;-46
2021/09/28 06:41:43;;;;;;;4.70;2.60;;;13.90;85.10;;;;;;5001577;28;20465;-46
2021/09/28 06:44:10;;;;;;;5.83;1.77;;;13.90;85.10;;;;;;4998806;28;20472;-46
2021/09/28 06:46:37;;;;;;;4.30;1.70;;;13.90;85.10;;;;;;4999583;28;20476;-46
2021/09/28 06:49:04;;;;;;;4.53;1.83;;;13.90;85.10;;;;;;5004107;28;20913;-46
2021/09/28 06:51:31;;;;;;;1.80;1.70;;;14.00;85.10;;;;;;5002933;28;20871;-46
2021/09/28 06:53:57;;;;;;;3.83;2.03;;;14.00;85.00;;;;;;5006308;28;20500;-46
2021/09/28 06:56:24;;;;;;;3.93;1.73;;;14.00;84.80;;;;;;5017073;28;20457;-46
2021/09/28 06:58:52;;;;;;;2.03;1.83;;;14.10;84.70;;;;;;5005168;28;20457;-46
2021/09/28 07:01:19;;;;;;;5.23;2.40;;;14.10;84.50;;;;;;5003456;28;20536;-46
2021/09/28 07:03:47;;;;;;;3.27;1.70;;;14.10;84.40;;;;;;5006178;28;20529;-46
2021/09/28 07:06:15;;;;;;;4.80;2.30;;;14.20;84.30;;;;;;5002195;28;20952;-46
2021/09/28 07:08:42;;;;;;;4.63;1.50;;;14.20;84.30;;;;;;5008030;28;20452;-46
2021/09/28 07:11:09;;;;;;;4.13;2.10;;;14.20;84.50;;;;;;5005286;28;20496;-46
2021/09/28 07:13:36;;;;;;;4.50;2.10;;;14.20;84.40;;;;;;5003452;28;20471;-45
2021/09/28 07:16:02;;;;;;;1.80;1.63;;;14.30;84.20;;;;;;5005756;28;20444;-45
2021/09/28 07:18:29;;;;;;;3.63;1.90;;;14.30;84.10;;;;;;5004360;28;20436;-46
2021/09/28 07:20:56;;;;;;;1.67;1.57;;;14.40;83.90;;;;;;5002825;28;20460;-46
2021/09/28 07:23:25;;;;;;;3.13;1.63;;;14.40;83.50;;;;;;5004857;28;20446;-46
2021/09/28 07:25:52;;;;;;;4.83;1.60;;;14.50;83.50;;;;;;5004993;28;20506;-46
2021/09/28 07:28:19;;;;;;;1.53;1.43;;;14.60;83.00;;;;;;5007458;28;20532;-46
2021/09/28 07:30:46;;;;;;;2.60;1.50;;;14.60;82.80;;;;;;5005598;28;20468;-46
2021/09/28 07:33:13;;;;;;;3.70;2.07;;;14.60;82.80;;;;;;5003213;28;20461;-46
2021/09/28 07:35:43;;;;;;;2.90;2.67;;;14.70;82.80;;;;;;5004732;28;20484;-46
2021/09/28 07:38:11;;;;;;;3.70;1.40;;;14.70;82.80;;;;;;5000574;28;20462;-46
2021/09/28 07:40:40;;;;;;;5.10;1.97;;;14.70;83.10;;;;;;5004307;28;20449;-46
2021/09/28 07:43:07;;;;;;;5.60;1.90;;;14.80;83.00;;;;;;5005032;28;20444;-46
2021/09/28 07:45:35;;;;;;;3.77;1.40;;;14.80;82.80;;;;;;5011826;28;20456;-46
2021/09/28 07:48:03;;;;;;;3.43;1.90;;;14.90;82.30;;;;;;5007279;28;20480;-46
2021/09/28 07:50:30;;;;;;;5.23;1.60;;;14.90;82.00;;;;;;5002942;28;20807;-46
2021/09/28 07:52:57;;;;;;;6.23;2.37;;;15.00;81.90;;;;;;5004663;28;20464;-46
2021/09/28 07:55:25;;;;;;;8.70;1.93;;;15.00;81.20;;;;;;5004161;28;20488;-46
2021/09/28 07:57:51;;;;;;;2.20;1.47;;;15.00;81.00;;;;;;5006909;28;20756;-46
2021/09/28 08:00:18;;;;;;;2.50;1.53;;;15.00;81.20;;;;;;5003179;28;20460;-46
2021/09/28 08:02:45;;;;;;;3.33;1.73;;;15.10;81.40;;;;;;5003674;28;20449;-46
2021/09/28 08:05:12;;;;;;;6.13;2.50;;;15.20;81.50;;;;;;5005592;28;20459;-46
2021/09/28 08:07:39;;;;;;;3.70;1.77;;;15.30;80.90;;;;;;5004980;28;20997;-46
2021/09/28 08:10:11;;;;;;;6.43;1.90;;;15.30;80.90;;;;;;5006036;28;20461;-46
2021/09/28 08:12:39;;;;;;;5.60;1.83;;;15.50;80.30;;;;;;5003258;28;20464;-45
2021/09/28 08:15:07;;;;;;;2.77;1.40;;;15.50;79.80;;;;;;5017196;28;20488;-45
2021/09/28 08:17:36;;;;;;;8.37;1.93;;;15.60;79.60;;;;;;5002901;28;20456;-45
2021/09/28 08:20:04;;;;;;;4.90;1.80;;;15.60;79.50;;;;;;5006034;28;20449;-46
2021/09/28 08:22:30;;;;;;;6.70;2.00;;;15.80;79.50;;;;;;5006320;28;20456;-46
2021/09/28 08:25:06;;;;;;;1.33;1.23;;;15.90;79.10;;;;;;5011198;28;20748;-46
2021/09/28 08:30:18;;;;;;;5.77;1.90;;;16.20;77.00;;;;;;5009021;28;20468;-46
2021/09/28 08:32:45;;;;;;;5.33;1.63;;;16.30;75.40;;;;;;5006019;28;20555;-46
2021/09/28 08:35:12;;;;;;;3.70;1.70;;;16.30;75.60;;;;;;5009732;28;20855;-46
2021/09/28 08:37:39;;;;;;;6.83;1.67;;;16.30;75.80;;;;;;5010556;28;20467;-46
2021/09/28 08:40:06;;;;;;;5.83;1.50;;;16.40;75.30;;;;;;5007501;28;20466;-46
2021/09/28 08:42:33;;;;;;;4.97;1.60;;;16.40;74.30;;;;;;5010827;28;20452;-46
2021/09/28 08:45:00;;;;;;;2.70;1.50;;;16.30;75.30;;;;;;5008109;28;20491;-46
2021/09/28 08:47:37;;;;;;;9.40;2.20;;;16.20;76.10;;;;;;5005605;28;20455;-46
2021/09/28 08:50:07;;;;;;;5.93;1.90;;;16.20;76.80;;;;;;5006793;28;20449;-46
2021/09/28 08:52:43;;;;;;;7.30;2.20;;;16.20;77.10;;;;;;5013683;28;20451;-46
2021/09/28 08:55:20;;;;;;;3.10;1.63;;;16.20;77.20;;;;;;5009160;28;20484;-46
2021/09/28 08:57:48;;;;;;;3.17;1.50;;;16.30;77.20;;;;;;5006340;28;20467;-46
2021/09/28 09:00:17;;;;;;;4.33;1.37;;;16.40;75.50;;;;;;5010854;28;20996;-46
2021/09/28 09:02:46;;;;;;;2.10;1.60;;;16.50;75.60;;;;;;5008532;28;20523;-46
2021/09/28 09:05:14;;;;;;;1.73;1.40;;;16.40;75.80;;;;;;5007399;28;20483;-46
2021/09/28 09:07:42;;;;;;;3.00;1.63;;;16.40;76.60;;;;;;5007726;28;20479;-46
2021/09/28 09:10:10;;;;;;;7.33;2.10;;;16.40;76.80;;;;;;5009598;28;20460;-46
2021/09/28 09:12:40;;;;;;;6.20;1.80;;;16.50;76.80;;;;;;5009125;28;20475;-46
2021/09/28 09:15:26;;;;;;;8.83;2.03;;;16.50;76.60;;;;;;5006010;28;20535;-46
2021/09/28 09:17:56;;;;;;;4.13;2.00;;;16.60;76.10;;;;;;5006110;28;20461;-46
2021/09/28 09:20:49;;;;;;;3.13;1.33;;;16.70;74.80;;;;;;5004053;28;20471;-46
2021/09/28 09:23:26;;;;;;;4.50;1.40;;;16.80;74.90;;;;;;5008540;28;20471;-46
2021/09/28 09:26:15;;;;;;;4.10;2.20;;;16.70;75.30;;;;;;5001799;28;20531;-46
2021/09/28 09:28:50;;;;;;;6.97;1.60;;;16.70;75.30;;;;;;5008087;28;20459;-46
2021/09/28 09:31:31;;;;;;;3.20;1.20;;;16.70;75.00;;;;;;5006791;28;20468;-47
2021/09/28 09:34:14;;;;;;;2.70;1.30;;;16.80;74.60;;;;;;4995865;28;20484;-46
2021/09/28 09:36:43;;;;;;;3.80;1.83;;;16.90;74.60;;;;;;5005968;28;20460;-46
2021/09/28 09:39:10;;;;;;;6.07;1.40;;;16.90;74.50;;;;;;5006103;28;20989;-47
2021/09/28 09:41:39;;;;;;;7.10;1.73;;;17.00;74.10;;;;;;5008248;28;20452;-47
2021/09/28 09:44:16;;;;;;;3.90;1.17;;;17.10;72.80;;;;;;5014829;28;20471;-47
2021/09/28 09:46:50;;;;;;;3.50;1.53;;;17.20;73.10;;;;;;5007235;28;20464;-47
2021/09/28 09:49:37;;;;;;;5.37;1.30;;;17.20;72.60;;;;;;5004710;28;20845;-47
2021/09/28 09:52:09;;;;;;;6.03;1.30;;;17.30;71.90;;;;;;5006428;28;20456;-47
2021/09/28 09:54:41;;;;;;;8.03;1.93;;;17.40;71.70;;;;;;5001658;28;20491;-47
2021/09/28 09:57:10;;;;;;;7.20;1.27;;;17.50;71.70;;;;;;5003576;28;20985;-47
2021/09/28 09:59:38;;;;;;;3.53;1.33;;;17.60;71.20;;;;;;5005570;28;21170;-46
2021/09/28 10:02:07;;;;;;;6.80;1.53;;;17.70;70.30;;;;;;5004077;28;20466;-47
2021/09/28 10:04:34;;;;;;;5.73;1.57;;;17.80;69.20;;;;;;5005619;28;20476;-47
2021/09/28 10:07:02;;;;;;;3.70;1.57;;;17.90;68.50;;;;;;5004082;28;20469;-47
2021/09/28 10:09:34;;;;;;;2.30;1.27;;;18.00;68.60;;;;;;5003539;28;20834;-47
2021/09/28 10:12:07;;;;;;;5.83;1.17;;;18.20;68.60;;;;;;5006671;28;20953;-47
2021/09/28 10:14:44;;;;;;;5.30;1.40;;;18.40;68.10;;;;;;5003526;28;20556;-47
2021/09/28 10:17:17;;;;;;;7.40;1.93;;;18.60;67.00;;;;;;5005843;28;20540;-47
2021/09/28 10:19:48;;;;;;;5.53;1.67;;;18.70;67.10;;;;;;5008250;28;20449;-47
2021/09/28 10:22:49;;;;;;;3.30;1.43;;;18.80;66.20;;;;;;5000974;28;20550;-47
2021/09/28 10:25:19;;;;;;;3.80;2.00;;;19.00;65.80;;;;;;5006833;28;20460;-45
2021/09/28 10:27:47;;;;;;;5.53;1.90;;;19.00;65.90;;;;;;5002296;28;20457;-45
2021/09/28 10:30:40;;;;;;;5.97;1.60;;;19.00;66.20;;;;;;5004253;28;20461;-45
2021/09/28 10:33:24;;;;;;;6.53;3.97;;;18.90;67.00;;;;;;5004268;28;20473;-45
2021/09/28 10:36:13;;;;;;;3.30;1.80;;;18.90;67.10;;;;;;4999659;28;20484;-45
2021/09/28 10:38:42;;;;;;;2.57;1.40;;;18.80;66.60;;;;;;5001934;28;20452;-45
2021/09/28 10:41:28;;;;;;;5.27;1.90;;;18.80;66.50;;;;;;5005333;28;20456;-44
2021/09/28 10:44:14;;;;;;;9.67;2.30;;;18.70;66.30;;;;;;5003648;28;20832;-47
2021/09/28 10:46:41;;;;;;;4.53;2.00;;;18.70;66.20;;;;;;5002942;28;20495;-47
2021/09/28 10:49:28;;;;;;;5.90;1.53;;;18.70;66.30;;;;;;5003599;28;20742;-47
2021/09/28 10:52:19;;;;;;;10.00;1.83;;;18.80;66.00;;;;;;5001819;28;20449;-46
2021/09/28 10:55:11;;;;;;;7.13;2.70;;;18.90;65.90;;;;;;5000804;28;20489;-47
2021/09/28 11:00:24;;;;;;;2.57;1.43;;;18.80;65.30;;;;;;5000802;28;20461;-45
2021/09/28 11:02:53;;;;;;;1.97;1.20;;;18.80;65.20;;;;;;5001210;28;20461;-47
2021/09/28 11:05:30;;;;;;;5.33;1.73;;;18.90;63.90;;;;;;5001125;28;20468;-44
2021/09/28 11:07:58;;;;;;;7.03;2.43;;;18.90;63.00;;;;;;5000071;28;20448;-46
2021/09/28 11:10:26;;;;;;;4.63;1.30;;;18.90;63.10;;;;;;4992234;28;20464;-45
2021/09/28 11:12:52;;;;;;;4.27;1.60;;;19.00;63.10;;;;;;4995117;28;20472;-46
2021/09/28 11:15:21;;;;;;;5.60;1.80;;;19.00;62.80;;;;;;5000342;28;20514;-47
2021/09/28 11:17:48;;;;;;;5.07;1.33;;;19.10;63.10;;;;;;5000405;28;20465;-46
2021/09/28 11:20:26;;;;;;;4.93;1.57;;;19.10;63.40;;;;;;5003781;28;20464;-44
2021/09/28 11:23:04;;;;;;;3.57;1.20;;;19.10;64.00;;;;;;5002001;28;20478;-44
2021/09/28 11:25:33;;;;;;;5.60;1.30;;;19.00;64.40;;;;;;5001773;28;20459;-44
2021/09/28 11:28:07;;;;;;;6.30;1.43;;;19.10;64.20;;;;;;5001683;28;20539;-44
2021/09/28 11:30:37;;;;;;;7.37;1.93;;;19.10;63.60;;;;;;5002038;28;20970;-44
2021/09/28 11:33:08;;;;;;;6.43;1.93;;;19.10;63.50;;;;;;4999713;28;20474;-45
2021/09/28 11:35:36;;;;;;;3.37;1.20;;;19.20;63.40;;;;;;4998911;28;20590;-44
2021/09/28 11:38:06;;;;;;;6.30;1.90;;;19.20;63.20;;;;;;4996469;28;20467;-44
2021/09/28 11:40:36;;;;;;;2.40;1.00;;;19.20;63.00;;;;;;5001298;28;20543;-44
2021/09/28 11:43:21;;;;;;;6.60;1.70;;;19.20;62.40;;;;;;5002925;28;20560;-45
2021/09/28 11:46:01;;;;;;;3.87;0.93;;;19.20;62.00;;;;;;4998319;28;20461;-46
2021/09/28 11:48:35;;;;;;;3.73;1.00;;;19.20;62.30;;;;;;4998858;28;20456;-45
2021/09/28 11:51:10;;;;;;;3.00;1.00;;;19.20;61.90;;;;;;5001819;28;20457;-45
2021/09/28 11:53:42;;;;;;;3.50;1.03;;;19.20;61.00;;;;;;4999167;28;20473;-45
2021/09/28 11:56:10;;;;;;;6.20;1.23;;;19.20;60.90;;;;;;4997003;28;20486;-46
2021/09/28 11:58:39;;;;;;;6.17;1.70;;;19.10;60.70;;;;;;5000133;28;20912;-46
2021/09/28 12:01:10;;;;;;;7.87;1.53;;;19.00;60.60;;;;;;4997668;28;21187;-45
2021/09/28 12:04:01;;;;;;;5.20;0.90;;;19.00;60.90;;;;;;4999339;28;20539;-45
2021/09/28 12:06:35;;;;;;;6.60;1.20;;;19.00;60.60;;;;;;5000875;28;20464;-45
2021/09/28 12:09:02;;;;;;;6.13;1.33;;;19.00;59.70;;;;;;4999967;28;20452;-46
2021/09/28 12:11:33;;;;;;;3.10;1.30;;;19.10;61.00;;;;;;5000235;28;20472;-46
2021/09/28 12:14:00;;;;;;;5.03;1.17;;;19.10;59.90;;;;;;5003850;28;20617;-45
2021/09/28 12:16:37;;;;;;;6.20;0.80;;;19.10;60.30;;;;;;5000837;28;20516;-45
2021/09/28 12:19:05;;;;;;;5.47;0.90;;;19.20;59.90;;;;;;5014368;28;20980;-45
2021/09/28 12:21:33;;;;;;;4.40;0.80;;;19.20;59.60;;;;;;4999504;28;20488;-46
2021/09/28 12:24:14;;;;;;;4.33;1.10;;;19.20;60.30;;;;;;5001368;28;20461;-45
2021/09/28 12:26:41;;;;;;;3.07;0.90;;;19.20;59.30;;;;;;5000946;28;20464;-46
2021/09/28 12:29:15;;;;;;;5.37;1.33;;;19.10;58.50;;;;;;5002643;28;20454;-45
2021/09/28 12:31:42;;;;;;;2.10;0.87;;;19.00;59.00;;;;;;5013791;28;20472;-45
2021/09/28 12:34:10;;;;;;;2.67;1.00;;;18.90;59.00;;;;;;5000120;28;20567;-45
2021/09/28 12:36:38;;;;;;;1.87;1.10;;;18.90;59.00;;;;;;5002367;28;21005;-45
2021/09/28 12:39:14;;;;;;;8.13;1.80;;;18.90;59.30;;;;;;5002941;28;20464;-45
2021/09/28 12:42:04;;;;;;;3.87;1.00;;;18.90;59.50;;;;;;4997486;28;20463;-45
2021/09/28 12:44:32;;;;;;;3.57;1.00;;;18.90;60.00;;;;;;4995959;28;20456;-45
2021/09/28 12:46:58;;;;;;;2.67;1.30;;;18.90;60.10;;;;;;5002857;28;20452;-45
2021/09/28 12:49:35;;;;;;;5.27;1.30;;;18.80;60.20;;;;;;5000779;28;21424;-45
2021/09/28 12:52:02;;;;;;;7.03;1.63;;;18.80;59.80;;;;;;4997381;28;20448;-45
2021/09/28 12:54:28;;;;;;;3.20;1.03;;;18.80;59.50;;;;;;5018778;28;20456;-45
2021/09/28 12:56:55;;;;;;;2.07;1.00;;;18.70;59.70;;;;;;5000578;28;21039;-45
2021/09/28 12:59:23;;;;;;;2.23;1.30;;;18.70;59.90;;;;;;5001621;28;20459;-46
2021/09/28 13:01:50;;;;;;;4.30;1.10;;;18.70;60.00;;;;;;5001848;28;20455;-45